Time;durP1;ratioP1;P1;durP2;ratioP2;P2;SDS_P1;SDS_P2;PMS_P1;PMS_P2;Temp;Humidity;BMP_temperature;BMP_pressure;BME280_temperature;BME280_humidity;BME280_pressure;Samples;Min_cycle;Max_cycle;Signal;HPM_P1;HPM_P2
2023/02/17 00:02:16;;;;;;;28.40;23.30;;;;;;;-1.99;100.00;97866.81;5062795;28;20233;-67
2023/02/17 00:04:44;;;;;;;28.13;22.53;;;;;;;-2.02;100.00;97864.38;5062797;28;20300;-64
2023/02/17 00:07:11;;;;;;;30.50;22.90;;;;;;;-2.06;100.00;97863.72;5064840;28;20195;-66
2023/02/17 00:09:39;;;;;;;31.00;23.40;;;;;;;-2.11;100.00;97863.97;5014718;28;20732;-65
2023/02/17 00:12:07;;;;;;;30.67;23.00;;;;;;;-2.22;100.00;97850.75;5063203;28;20233;-65
2023/02/17 00:14:35;;;;;;;30.27;24.03;;;;;;;-2.22;100.00;97855.97;5062662;28;20690;-65
2023/02/17 00:17:03;;;;;;;30.70;23.83;;;;;;;-2.20;100.00;97849.78;5042556;28;20233;-65
2023/02/17 00:19:32;;;;;;;28.67;22.63;;;;;;;-2.21;100.00;97858.47;5065161;28;20197;-64
2023/02/17 00:22:00;;;;;;;34.13;24.23;;;;;;;-2.24;100.00;97855.22;5060811;28;20218;-66
2023/02/17 00:24:30;;;;;;;35.27;23.73;;;;;;;-2.25;100.00;97856.13;5022357;28;20210;-65
2023/02/17 00:26:59;;;;;;;31.00;23.60;;;;;;;-2.30;100.00;97855.56;5063834;28;20479;-65
2023/02/17 00:29:26;;;;;;;31.60;25.10;;;;;;;-2.33;100.00;97859.16;5067066;28;20372;-66
2023/02/17 00:31:55;;;;;;;29.97;22.97;;;;;;;-2.34;100.00;97863.53;5039842;28;20885;-64
2023/02/17 00:34:23;;;;;;;29.03;23.57;;;;;;;-2.37;100.00;97868.88;5061890;28;20233;-66
2023/02/17 00:36:52;;;;;;;29.27;22.97;;;;;;;-2.39;100.00;97873.34;5057907;28;20621;-65
2023/02/17 00:39:20;;;;;;;33.33;24.40;;;;;;;-2.37;100.00;97871.50;5016575;28;20241;-66
2023/02/17 00:41:47;;;;;;;31.33;24.93;;;;;;;-2.39;100.00;97875.06;5064226;28;20205;-63
2023/02/17 00:44:17;;;;;;;29.97;23.60;;;;;;;-2.45;100.00;97872.81;5065944;28;20198;-65
2023/02/17 00:46:45;;;;;;;30.70;24.90;;;;;;;-2.43;100.00;97869.25;5044664;28;20288;-63
2023/02/17 00:49:16;;;;;;;29.80;24.13;;;;;;;-2.39;100.00;97869.88;5062164;28;20210;-65
2023/02/17 00:51:44;;;;;;;33.40;23.20;;;;;;;-2.39;100.00;97867.28;5058686;28;20213;-64
2023/02/17 00:54:13;;;;;;;32.07;23.73;;;;;;;-2.42;100.00;97870.06;5062572;28;20292;-66
2023/02/17 00:56:41;;;;;;;31.30;24.17;;;;;;;-2.45;100.00;97870.22;5016266;28;20247;-63
2023/02/17 00:59:10;;;;;;;32.23;24.57;;;;;;;-2.44;100.00;97867.56;5069423;28;20384;-65
2023/02/17 01:01:38;;;;;;;33.23;24.67;;;;;;;-2.47;100.00;97865.13;5066191;28;20628;-62
2023/02/17 01:04:06;;;;;;;31.13;24.17;;;;;;;-2.46;100.00;97866.81;5046650;28;20788;-63
2023/02/17 01:06:35;;;;;;;34.87;25.43;;;;;;;-2.48;100.00;97861.69;5068146;28;20631;-63
2023/02/17 01:09:05;;;;;;;31.33;24.03;;;;;;;-2.44;100.00;97857.19;5070151;28;20518;-65
2023/02/17 01:11:36;;;;;;;28.23;22.97;;;;;;;-2.43;100.00;97847.63;5019798;28;20325;-63
2023/02/17 01:14:05;;;;;;;37.73;25.43;;;;;;;-2.44;100.00;97844.22;5066158;28;20822;-66
2023/02/17 01:16:36;;;;;;;35.30;26.37;;;;;;;-2.44;100.00;97852.00;5063113;28;20217;-64
2023/02/17 01:19:06;;;;;;;38.63;27.23;;;;;;;-2.44;100.00;97844.22;5044239;28;20221;-64
2023/02/17 01:21:33;;;;;;;38.30;27.30;;;;;;;-2.41;100.00;97846.63;5068642;28;20218;-66
2023/02/17 01:24:04;;;;;;;41.37;25.30;;;;;;;-2.37;100.00;97836.88;5042086;28;20230;-64
2023/02/17 01:26:34;;;;;;;38.10;27.50;;;;;;;-2.32;100.00;97842.66;5022481;28;20218;-64
2023/02/17 01:29:03;;;;;;;41.57;26.67;;;;;;;-2.30;100.00;97834.78;5062667;28;20209;-64
2023/02/17 01:31:31;;;;;;;45.87;27.20;;;;;;;-2.28;100.00;97838.13;5068315;28;20215;-64
2023/02/17 01:34:00;;;;;;;38.67;28.77;;;;;;;-2.26;100.00;97841.47;5032854;28;20644;-64
2023/02/17 01:36:28;;;;;;;36.37;27.57;;;;;;;-2.23;100.00;97838.72;5063530;28;21175;-66
2023/02/17 01:38:55;;;;;;;35.43;26.23;;;;;;;-2.21;100.00;97840.31;5065782;28;20781;-64
2023/02/17 01:41:26;;;;;;;39.83;27.17;;;;;;;-2.20;100.00;97833.34;5024284;28;21835;-66
2023/02/17 01:44:11;;;;;;;38.63;26.17;;;;;;;-2.11;100.00;97831.97;5068617;28;20224;-64
2023/02/17 01:46:40;;;;;;;38.90;27.33;;;;;;;-2.15;100.00;97826.13;5043473;28;20205;-66
2023/02/17 01:49:15;;;;;;;38.70;26.13;;;;;;;-2.17;100.00;97822.78;5032976;28;21143;-63
2023/02/17 01:51:44;;;;;;;37.73;26.20;;;;;;;-2.11;100.00;97816.41;5040312;28;20218;-63
2023/02/17 01:54:14;;;;;;;40.53;28.23;;;;;;;-2.20;100.00;97807.38;5065498;28;20202;-62
2023/02/17 01:56:44;;;;;;;41.93;27.67;;;;;;;-2.23;100.00;97807.56;5029920;28;20202;-63
2023/02/17 01:59:17;;;;;;;36.47;27.17;;;;;;;-2.23;100.00;97805.81;5055551;28;20441;-65
2023/02/17 02:01:45;;;;;;;34.67;26.70;;;;;;;-2.16;100.00;97814.06;5058638;28;20186;-64
2023/02/17 02:04:15;;;;;;;42.57;28.70;;;;;;;-2.13;100.00;97803.50;5065185;28;20244;-65
2023/02/17 02:06:43;;;;;;;39.33;27.80;;;;;;;-2.10;100.00;97792.09;5044335;28;20670;-65
2023/02/17 02:09:17;;;;;;;42.73;29.63;;;;;;;-2.06;100.00;97799.66;5068432;28;20391;-65
2023/02/17 02:11:44;;;;;;;37.23;27.80;;;;;;;-2.04;100.00;97787.41;5045951;28;20233;-64
2023/02/17 02:14:13;;;;;;;42.50;27.90;;;;;;;-1.99;100.00;97786.28;5013878;28;20506;-64
2023/02/17 02:16:45;;;;;;;41.10;29.67;;;;;;;-1.97;100.00;97774.88;5064826;28;20206;-65
2023/02/17 02:19:30;;;;;;;39.40;28.53;;;;;;;-1.95;100.00;97780.81;5067547;28;20210;-64
2023/02/17 02:22:18;;;;;;;39.57;28.77;;;;;;;-1.94;100.00;97771.28;5039946;28;20221;-63
2023/02/17 02:24:55;;;;;;;43.20;28.40;;;;;;;-1.89;100.00;97764.03;5061772;28;20203;-63
2023/02/17 02:27:51;;;;;;;45.57;30.43;;;;;;;-1.82;100.00;97760.13;5052182;28;20205;-64
2023/02/17 02:30:52;;;;;;;40.60;29.70;;;;;;;-1.76;100.00;97770.16;5065798;28;20203;-63
2023/02/17 02:33:25;;;;;;;41.93;28.07;;;;;;;-1.75;100.00;97753.63;5066743;28;20313;-62
2023/02/17 02:35:58;;;;;;;39.53;28.90;;;;;;;-1.67;100.00;97752.38;5064253;28;20193;-63
2023/02/17 02:38:30;;;;;;;47.97;28.93;;;;;;;-1.72;100.00;97742.25;5042641;28;20206;-63
2023/02/17 02:41:04;;;;;;;42.33;28.70;;;;;;;-1.60;100.00;97753.66;5065120;28;20699;-63
2023/02/17 02:43:32;;;;;;;42.33;29.00;;;;;;;-1.62;100.00;97758.13;5050721;28;20222;-64
2023/02/17 02:45:59;;;;;;;43.97;27.93;;;;;;;-1.59;100.00;97750.13;5022227;28;20575;-64
2023/02/17 02:48:28;;;;;;;42.90;31.30;;;;;;;-1.62;100.00;97748.53;5069462;28;20236;-63
2023/02/17 02:51:08;;;;;;;44.03;29.33;;;;;;;-1.66;100.00;97749.66;5061789;28;20815;-63
2023/02/17 02:53:58;;;;;;;44.87;30.60;;;;;;;-1.57;100.00;97747.41;5066588;28;20724;-62
2023/02/17 02:56:35;;;;;;;45.13;30.80;;;;;;;-1.53;100.00;97751.50;5066942;28;20233;-64
2023/02/17 02:59:10;;;;;;;42.57;30.83;;;;;;;-1.48;100.00;97749.47;5000072;28;20568;-63
2023/02/17 03:01:45;;;;;;;40.73;29.30;;;;;;;-1.44;100.00;97750.09;5068497;28;20217;-63
2023/02/17 03:04:18;;;;;;;41.37;29.70;;;;;;;-1.43;100.00;97741.38;5040480;28;20221;-63
2023/02/17 03:06:48;;;;;;;40.67;30.67;;;;;;;-1.42;100.00;97740.44;5066822;28;20191;-63
2023/02/17 03:09:19;;;;;;;41.93;30.30;;;;;;;-1.44;100.00;97724.97;5048994;28;20206;-63
2023/02/17 03:11:48;;;;;;;40.90;27.93;;;;;;;-1.36;100.00;97740.06;5065294;28;20256;-63
2023/02/17 03:14:18;;;;;;;42.10;29.57;;;;;;;-1.38;100.00;97739.31;5020848;28;20218;-63
2023/02/17 03:16:46;;;;;;;38.80;29.97;;;;;;;-1.29;100.00;97740.53;5056522;28;20214;-63
2023/02/17 03:19:17;;;;;;;41.80;29.53;;;;;;;-1.28;100.00;97727.44;5061016;28;20213;-62
2023/02/17 03:21:48;;;;;;;42.87;29.57;;;;;;;-1.28;100.00;97730.03;5058019;28;20509;-63
2023/02/17 03:24:16;;;;;;;44.77;30.60;;;;;;;-1.29;100.00;97728.38;5056133;28;20435;-63
2023/02/17 03:26:44;;;;;;;40.70;30.07;;;;;;;-1.25;100.00;97737.66;5062566;28;20210;-62
2023/02/17 03:29:12;;;;;;;43.67;30.33;;;;;;;-1.26;100.00;97719.53;5050665;28;20399;-63
2023/02/17 03:31:40;;;;;;;43.27;30.27;;;;;;;-1.23;100.00;97720.19;5044266;28;20222;-63
2023/02/17 03:34:08;;;;;;;41.27;29.93;;;;;;;-1.25;100.00;97714.25;5064891;28;20297;-63
2023/02/17 03:36:37;;;;;;;41.40;31.37;;;;;;;-1.24;100.00;97715.91;5063503;28;20791;-62
2023/02/17 03:39:04;;;;;;;44.73;31.33;;;;;;;-1.23;100.00;97717.59;5065757;28;20206;-63
2023/02/17 03:41:32;;;;;;;45.23;30.43;;;;;;;-1.15;100.00;97729.25;5043323;28;20413;-62
2023/02/17 03:44:00;;;;;;;35.47;28.77;;;;;;;-1.15;100.00;97719.69;5060544;28;20618;-64
2023/02/17 03:46:28;;;;;;;44.63;31.23;;;;;;;-1.14;100.00;97717.94;5015168;28;20205;-63
2023/02/17 03:48:56;;;;;;;42.93;29.87;;;;;;;-1.13;100.00;97723.06;5041244;28;20682;-62
2023/02/17 03:51:24;;;;;;;41.97;29.47;;;;;;;-1.08;100.00;97727.94;5061209;28;20224;-63
2023/02/17 03:53:53;;;;;;;37.60;29.43;;;;;;;-1.10;100.00;97722.84;5061225;28;20222;-63
2023/02/17 03:56:21;;;;;;;43.03;30.50;;;;;;;-1.10;100.00;97728.06;5035165;28;20219;-63
2023/02/17 03:58:49;;;;;;;40.63;29.13;;;;;;;-1.06;100.00;97733.88;5046037;28;20207;-63
2023/02/17 04:01:16;;;;;;;40.43;29.30;;;;;;;-1.06;100.00;97729.53;5005924;28;20215;-64
2023/02/17 04:03:45;;;;;;;39.37;28.70;;;;;;;-1.00;100.00;97738.69;5032500;28;20215;-63
2023/02/17 04:06:13;;;;;;;39.73;29.40;;;;;;;-0.98;100.00;97734.22;5039964;28;20710;-64
2023/02/17 04:08:41;;;;;;;37.17;29.03;;;;;;;-0.95;100.00;97734.03;5035104;28;20329;-63
2023/02/17 04:11:10;;;;;;;41.27;29.37;;;;;;;-0.93;100.00;97731.34;5036002;28;20229;-64
2023/02/17 04:13:38;;;;;;;36.30;28.40;;;;;;;-0.86;100.00;97744.78;5013123;28;20285;-63
2023/02/17 04:16:07;;;;;;;40.30;29.43;;;;;;;-0.88;100.00;97743.13;5045575;28;20511;-63
2023/02/17 04:18:36;;;;;;;39.83;28.63;;;;;;;-0.78;100.00;97743.34;4997552;28;20779;-63
2023/02/17 04:21:04;;;;;;;40.70;28.53;;;;;;;-0.78;100.00;97745.94;5043757;28;20195;-63
2023/02/17 04:23:31;;;;;;;37.27;28.03;;;;;;;-0.76;100.00;97744.13;5038616;28;20231;-62
2023/02/17 04:25:59;;;;;;;35.43;27.60;;;;;;;-0.74;100.00;97742.25;5038354;28;20390;-61
2023/02/17 04:28:29;;;;;;;35.40;27.93;;;;;;;-0.67;100.00;97737.47;5021886;28;20203;-63
2023/02/17 04:30:58;;;;;;;39.17;27.73;;;;;;;-0.60;100.00;97730.09;5040296;28;20618;-62
2023/02/17 04:33:26;;;;;;;39.80;29.17;;;;;;;-0.65;100.00;97726.97;4998118;28;20318;-62
2023/02/17 04:35:58;;;;;;;39.10;27.30;;;;;;;-0.62;100.00;97727.56;5036514;28;20404;-62
2023/02/17 04:38:27;;;;;;;37.43;26.87;;;;;;;-0.58;100.00;97725.63;5041017;28;20717;-63
2023/02/17 04:40:55;;;;;;;32.73;27.87;;;;;;;-0.62;100.00;97718.94;5040970;28;20196;-60
2023/02/17 04:43:23;;;;;;;37.63;28.10;;;;;;;-0.56;100.00;97728.97;5025332;28;20210;-64
2023/02/17 04:45:53;;;;;;;39.17;28.23;;;;;;;-0.55;100.00;97719.41;5039822;28;20203;-66
2023/02/17 04:48:22;;;;;;;38.47;28.93;;;;;;;-0.59;100.00;97718.75;5043104;28;20219;-63
2023/02/17 04:50:50;;;;;;;41.27;29.07;;;;;;;-0.62;100.00;97714.56;4998707;28;20215;-65
2023/02/17 04:53:19;;;;;;;38.27;26.57;;;;;;;-0.61;100.00;97716.22;5046501;28;20242;-66
2023/02/17 04:55:48;;;;;;;37.03;28.43;;;;;;;-0.58;100.00;97712.59;5029970;28;20205;-64
2023/02/17 04:58:16;;;;;;;37.30;29.77;;;;;;;-0.57;100.00;97709.06;5046835;28;20866;-66
2023/02/17 05:00:43;;;;;;;35.43;28.43;;;;;;;-0.52;100.00;97706.19;5066204;28;20203;-64
2023/02/17 05:03:12;;;;;;;42.77;29.17;;;;;;;-0.49;100.00;97713.78;5048638;28;20907;-65
2023/02/17 05:05:40;;;;;;;37.70;29.27;;;;;;;-0.42;100.00;97709.84;5016444;28;20206;-60
2023/02/17 05:08:08;;;;;;;32.47;26.87;;;;;;;-0.37;100.00;97702.53;5054809;28;20358;-61
2023/02/17 05:10:35;;;;;;;37.00;28.20;;;;;;;-0.32;100.00;97697.84;5060651;28;20289;-61
2023/02/17 05:13:03;;;;;;;34.77;27.83;;;;;;;-0.27;100.00;97704.53;5058056;28;20418;-68
2023/02/17 05:15:31;;;;;;;37.47;28.50;;;;;;;-0.27;100.00;97702.75;5043067;28;20286;-67
2023/02/17 05:18:01;;;;;;;41.43;29.60;;;;;;;-0.25;100.00;97713.06;5057580;28;20206;-67
2023/02/17 05:20:30;;;;;;;35.03;27.20;;;;;;;-0.23;100.00;97708.59;5060198;28;20195;-68
2023/02/17 05:22:57;;;;;;;39.27;29.67;;;;;;;-0.21;100.00;97710.16;5008290;28;20229;-66
2023/02/17 05:25:25;;;;;;;37.20;28.90;;;;;;;-0.25;100.00;97694.84;5061795;28;20282;-67
2023/02/17 05:27:52;;;;;;;37.10;27.93;;;;;;;-0.21;100.00;97706.72;5063995;28;20203;-65
2023/02/17 05:30:20;;;;;;;35.17;27.97;;;;;;;-0.24;100.00;97706.91;5044614;28;20211;-67
2023/02/17 05:32:48;;;;;;;37.10;28.20;;;;;;;-0.26;100.00;97703.59;5058662;28;20783;-65
2023/02/17 05:35:16;;;;;;;33.33;28.23;;;;;;;-0.33;100.00;97698.78;5062698;28;20787;-68
2023/02/17 05:37:45;;;;;;;35.87;28.13;;;;;;;-0.34;100.00;97696.31;5017054;28;20701;-65
2023/02/17 05:40:12;;;;;;;36.97;28.87;;;;;;;-0.45;100.00;97695.22;5060607;28;20198;-66
2023/02/17 05:42:40;;;;;;;37.10;28.07;;;;;;;-0.47;100.00;97701.50;5061690;28;20219;-64
2023/02/17 05:45:08;;;;;;;42.58;35.15;;;;;;;-0.46;100.00;97701.38;5032808;28;20831;-68
2023/02/17 05:47:36;;;;;;;40.47;31.53;;;;;;;-0.41;100.00;97703.69;5043227;28;20678;-67
2023/02/17 05:50:04;;;;;;;40.27;30.23;;;;;;;-0.44;100.00;97702.09;5052060;28;20214;-67
2023/02/17 05:52:33;;;;;;;32.67;27.93;;;;;;;-0.33;100.00;97704.00;5022559;28;20222;-64
2023/02/17 05:55:03;;;;;;;37.00;28.80;;;;;;;-0.30;100.00;97708.19;5051799;28;20677;-66
2023/02/17 05:57:31;;;;;;;35.70;28.63;;;;;;;-0.24;100.00;97709.53;5042551;28;20233;-65
2023/02/17 05:59:59;;;;;;;38.13;30.03;;;;;;;-0.18;100.00;97703.94;5048934;28;20470;-67
2023/02/17 06:02:26;;;;;;;35.53;28.23;;;;;;;-0.14;100.00;97702.78;5029602;28;20227;-66
2023/02/17 06:04:54;;;;;;;42.13;30.40;;;;;;;-0.12;100.00;97700.91;5035796;28;20207;-66
2023/02/17 06:07:22;;;;;;;40.80;30.17;;;;;;;-0.12;100.00;97700.91;5028782;28;20500;-65
2023/02/17 06:09:50;;;;;;;35.57;29.13;;;;;;;-0.20;100.00;97682.34;5028573;28;20202;-66
2023/02/17 06:12:19;;;;;;;39.13;30.03;;;;;;;-0.09;100.00;97697.25;5049609;28;20219;-66
2023/02/17 06:14:46;;;;;;;37.57;29.87;;;;;;;-0.06;100.00;97691.81;5045722;28;20380;-68
2023/02/17 06:17:14;;;;;;;38.30;30.10;;;;;;;-0.09;100.00;97694.63;5024909;28;20907;-65
2023/02/17 06:19:41;;;;;;;37.40;29.27;;;;;;;-0.07;100.00;97683.19;5019175;28;20399;-65
2023/02/17 06:22:09;;;;;;;35.43;29.60;;;;;;;-0.01;100.00;97679.31;5024458;28;20452;-66
2023/02/17 06:24:36;;;;;;;41.43;30.47;;;;;;;0.01;100.00;97679.22;4987488;28;20753;-64
2023/02/17 06:27:04;;;;;;;41.53;30.70;;;;;;;0.05;100.00;97681.53;5053152;28;20201;-67
2023/02/17 06:29:33;;;;;;;39.07;28.97;;;;;;;0.05;100.00;97680.66;5049750;28;20205;-65
2023/02/17 06:32:01;;;;;;;35.63;29.43;;;;;;;0.07;100.00;97682.25;5051904;28;20649;-65
2023/02/17 06:34:29;;;;;;;40.83;30.63;;;;;;;0.05;100.00;97675.47;5031950;28;20218;-65
2023/02/17 06:36:56;;;;;;;32.03;28.00;;;;;;;0.05;100.00;97676.31;5041600;28;20307;-66
2023/02/17 06:39:24;;;;;;;35.47;28.33;;;;;;;0.04;100.00;97679.84;4985465;28;20219;-66
2023/02/17 06:41:51;;;;;;;37.53;30.17;;;;;;;0.05;100.00;97681.53;5042528;28;20414;-66
2023/02/17 06:44:19;;;;;;;44.63;32.40;;;;;;;-0.03;100.00;97666.41;5034605;28;20610;-65
2023/02/17 06:46:48;;;;;;;38.07;29.10;;;;;;;0.04;100.00;97684.22;5041921;28;20676;-65
2023/02/17 06:49:16;;;;;;;37.63;29.30;;;;;;;0.07;100.00;97684.00;5027981;28;20674;-65
2023/02/17 06:51:43;;;;;;;37.57;29.53;;;;;;;0.09;100.00;97690.78;5012730;28;20229;-65
2023/02/17 06:54:11;;;;;;;39.03;31.33;;;;;;;0.13;100.00;97694.00;4987056;28;20657;-65
2023/02/17 06:56:39;;;;;;;34.53;28.20;;;;;;;0.19;100.00;97691.00;5032961;28;20207;-65
2023/02/17 06:59:06;;;;;;;37.67;31.27;;;;;;;0.25;100.00;97687.13;5046209;28;20213;-64
2023/02/17 07:01:34;;;;;;;36.87;29.07;;;;;;;0.28;100.00;97692.97;5048910;28;20206;-67
2023/02/17 07:04:03;;;;;;;39.13;28.80;;;;;;;0.33;100.00;97697.00;5028308;28;21440;-65
2023/02/17 07:06:30;;;;;;;43.47;30.27;;;;;;;0.38;100.00;97693.16;5026008;28;20204;-65
2023/02/17 07:08:58;;;;;;;38.20;31.43;;;;;;;0.45;100.00;97698.75;5026682;28;20727;-65
2023/02/17 07:11:30;;;;;;;36.23;29.43;;;;;;;0.41;100.00;97687.72;4997016;28;20222;-65
2023/02/17 07:13:57;;;;;;;35.43;29.73;;;;;;;0.51;100.00;97690.50;5040674;28;20409;-66
2023/02/17 07:16:25;;;;;;;37.53;28.07;;;;;;;0.52;100.00;97686.94;5049301;28;20705;-66
2023/02/17 07:18:52;;;;;;;35.10;28.17;;;;;;;0.66;100.00;97703.41;5028495;28;20425;-67
2023/02/17 07:21:21;;;;;;;39.20;29.57;;;;;;;0.70;100.00;97702.25;5029905;28;20209;-67
2023/02/17 07:23:49;;;;;;;33.57;28.23;;;;;;;0.76;100.00;97695.75;5045242;28;20234;-67
2023/02/17 07:26:16;;;;;;;33.80;28.73;;;;;;;0.80;100.00;97692.81;4984935;28;20648;-67
2023/02/17 07:28:44;;;;;;;36.13;28.70;;;;;;;0.89;100.00;97695.72;5048319;28;20583;-64
2023/02/17 07:31:13;;;;;;;34.60;28.40;;;;;;;0.91;100.00;97686.84;5046023;28;20434;-67
2023/02/17 07:33:41;;;;;;;31.07;27.70;;;;;;;1.05;100.00;97691.06;5046629;28;20225;-65
2023/02/17 07:36:11;;;;;;;34.07;26.83;;;;;;;1.14;100.00;97689.56;5028945;28;20217;-66
2023/02/17 07:38:41;;;;;;;32.70;27.87;;;;;;;1.27;100.00;97694.69;5034249;28;20211;-65
2023/02/17 07:41:10;;;;;;;34.57;26.63;;;;;;;1.35;100.00;97686.31;5034162;28;20205;-67
2023/02/17 07:43:38;;;;;;;31.63;25.80;;;;;;;1.47;100.00;97685.41;5003334;28;20250;-65
2023/02/17 07:46:06;;;;;;;34.83;26.93;;;;;;;1.63;100.00;97684.25;5044526;28;20286;-65
2023/02/17 07:48:35;;;;;;;33.47;27.87;;;;;;;1.77;100.00;97681.44;5046981;28;20207;-66
2023/02/17 07:51:06;;;;;;;28.27;24.67;;;;;;;1.70;100.00;97670.59;5027996;28;20344;-68
2023/02/17 07:53:34;;;;;;;27.47;24.67;;;;;;;1.78;100.00;97683.09;5032273;28;20222;-65
2023/02/17 07:56:04;;;;;;;27.93;24.80;;;;;;;1.99;100.00;97680.63;5040234;28;20438;-65
2023/02/17 07:58:32;;;;;;;27.83;23.50;;;;;;;1.96;100.00;97674.81;5023378;28;20210;-65
2023/02/17 08:01:05;;;;;;;28.83;24.23;;;;;;;1.92;100.00;97681.25;5063436;28;20323;-65
2023/02/17 08:03:33;;;;;;;28.63;24.20;;;;;;;1.93;100.00;97678.50;5063746;28;20795;-65
2023/02/17 08:06:01;;;;;;;25.93;23.03;;;;;;;2.01;100.00;97670.06;5043755;28;21235;-65
2023/02/17 08:14:02;;;;;;;28.97;24.70;;;;;;;2.33;100.00;97677.22;5017483;28;20227;-66
2023/02/17 08:16:29;;;;;;;26.00;23.20;;;;;;;2.42;100.00;97676.47;5064630;28;20214;-65
2023/02/17 08:18:57;;;;;;;25.97;22.00;;;;;;;2.47;100.00;97668.28;5063789;28;20778;-66
2023/02/17 08:21:26;;;;;;;24.90;22.07;;;;;;;2.44;100.00;97669.34;5014307;28;20700;-67
2023/02/17 08:23:54;;;;;;;28.83;22.03;;;;;;;2.58;100.00;97667.41;5068325;28;20234;-64
2023/02/17 08:26:23;;;;;;;25.57;22.00;;;;;;;2.70;100.00;97668.22;5010664;28;20522;-65
2023/02/17 08:28:51;;;;;;;23.87;21.47;;;;;;;2.68;100.00;97660.53;5024042;28;20283;-66
2023/02/17 08:31:21;;;;;;;25.33;22.13;;;;;;;2.77;100.00;97652.88;5060741;28;20680;-62
2023/02/17 08:33:49;;;;;;;26.17;21.17;;;;;;;2.86;100.00;97652.97;5063764;28;20476;-65
2023/02/17 08:36:19;;;;;;;22.57;20.37;;;;;;;2.89;100.00;97654.50;5044936;28;20210;-64
2023/02/17 08:38:49;;;;;;;23.30;20.13;;;;;;;2.98;100.00;97661.59;5050204;28;20210;-66
2023/02/17 08:41:20;;;;;;;24.43;20.60;;;;;;;3.03;100.00;97649.00;5032900;28;20221;-63
2023/02/17 08:43:49;;;;;;;22.07;19.83;;;;;;;3.18;100.00;97661.78;5047516;28;20227;-66
2023/02/17 08:46:18;;;;;;;22.97;20.57;;;;;;;3.21;100.00;97673.78;5016330;28;20236;-63
2023/02/17 08:48:46;;;;;;;24.37;20.20;;;;;;;3.25;100.00;97680.47;5070600;28;20222;-63
2023/02/17 08:51:14;;;;;;;22.07;19.90;;;;;;;3.33;100.00;97672.81;5059736;28;20209;-63
2023/02/17 08:53:43;;;;;;;21.70;19.60;;;;;;;3.44;100.00;97662.25;5048229;28;20229;-66
2023/02/17 08:56:11;;;;;;;21.03;18.80;;;;;;;3.45;100.00;97660.47;5040296;28;20530;-63
2023/02/17 08:58:39;;;;;;;21.37;19.10;;;;;;;3.48;100.00;97662.84;5042627;28;20198;-65
2023/02/17 09:01:08;;;;;;;22.20;20.03;;;;;;;3.48;100.00;97665.47;4990243;28;20210;-65
2023/02/17 09:03:37;;;;;;;21.37;19.20;;;;;;;3.59;100.00;97664.56;5063756;28;20302;-68
2023/02/17 09:06:06;;;;;;;23.13;19.47;;;;;;;3.61;100.00;97655.63;5064140;28;20229;-66
2023/02/17 09:08:34;;;;;;;22.33;19.07;;;;;;;3.75;100.00;97653.63;5045580;28;20202;-67
2023/02/17 09:11:02;;;;;;;20.13;18.00;;;;;;;3.78;100.00;97652.53;5052993;28;20202;-64
2023/02/17 09:13:30;;;;;;;21.53;19.13;;;;;;;3.83;100.00;97653.81;5010065;28;20276;-66
2023/02/17 09:15:58;;;;;;;21.77;19.43;;;;;;;3.81;100.00;97649.66;5017674;28;20594;-64
2023/02/17 09:18:27;;;;;;;21.50;18.50;;;;;;;3.86;100.00;97648.31;5061489;28;20530;-66
2023/02/17 09:20:54;;;;;;;22.70;19.67;;;;;;;4.09;100.00;97661.25;5060623;28;20620;-65
2023/02/17 09:23:22;;;;;;;21.43;18.43;;;;;;;4.22;100.00;97647.91;5065592;28;20290;-67
2023/02/17 09:25:49;;;;;;;22.77;17.77;;;;;;;4.32;100.00;97653.22;5052004;28;20407;-64
2023/02/17 09:28:17;;;;;;;21.37;17.80;;;;;;;4.41;100.00;97649.78;5028594;28;20423;-67
2023/02/17 09:30:45;;;;;;;20.13;18.07;;;;;;;4.49;100.00;97646.50;5069009;28;20289;-67
2023/02/17 09:33:12;;;;;;;20.07;17.97;;;;;;;4.78;100.00;97643.94;5019448;28;20713;-64
2023/02/17 09:35:43;;;;;;;19.23;17.20;;;;;;;4.85;100.00;97636.34;5046157;28;20308;-64
2023/02/17 09:38:11;;;;;;;20.87;18.43;;;;;;;4.87;100.00;97623.06;5055670;28;20294;-64
2023/02/17 09:40:43;;;;;;;17.83;15.93;;;;;;;4.78;100.00;97637.84;5049239;28;20210;-64
2023/02/17 09:43:12;;;;;;;18.63;16.43;;;;;;;4.86;100.00;97637.16;5042546;28;20830;-67
2023/02/17 09:45:40;;;;;;;19.60;17.67;;;;;;;4.80;100.00;97648.22;5044288;28;20325;-64
2023/02/17 09:48:10;;;;;;;19.93;17.80;;;;;;;4.96;100.00;97653.78;5022865;28;20225;-66
2023/02/17 09:50:44;;;;;;;19.13;17.13;;;;;;;5.03;100.00;97652.25;5067569;28;20533;-66
2023/02/17 09:53:16;;;;;;;18.70;16.77;;;;;;;5.17;100.00;97658.06;5062000;28;20310;-64
2023/02/17 09:55:47;;;;;;;19.20;17.20;;;;;;;5.29;100.00;97661.38;5058937;28;20656;-65
2023/02/17 09:58:18;;;;;;;18.30;16.40;;;;;;;5.36;100.00;97651.97;5020144;28;20385;-65
2023/02/17 10:00:48;;;;;;;16.67;14.93;;;;;;;5.38;100.00;97644.78;5030172;28;20200;-63
2023/02/17 10:03:16;;;;;;;18.20;16.17;;;;;;;5.37;100.00;97640.50;5007508;28;20468;-64
2023/02/17 10:05:51;;;;;;;19.47;17.40;;;;;;;5.47;100.00;97643.13;5052464;28;20196;-64
2023/02/17 10:08:22;;;;;;;17.43;15.73;;;;;;;5.64;100.00;97642.38;5045041;28;20265;-63
2023/02/17 10:10:54;;;;;;;17.33;15.63;;;;;;;5.71;100.00;97645.28;5045044;28;20686;-64
2023/02/17 10:13:23;;;;;;;19.57;16.77;;;;;;;5.72;100.00;97635.63;5049395;28;20636;-65
2023/02/17 10:15:53;;;;;;;17.40;15.50;;;;;;;5.64;100.00;97637.13;5015268;28;20660;-63
2023/02/17 10:18:25;;;;;;;16.53;14.93;;;;;;;5.70;100.00;97641.00;5004201;28;20217;-65
2023/02/17 10:20:58;;;;;;;16.33;14.63;;;;;;;5.69;100.00;97634.09;5047817;28;20578;-63
2023/02/17 10:23:27;;;;;;;18.10;15.13;;;;;;;5.79;100.00;97640.13;5048754;28;20227;-64
2023/02/17 10:26:07;;;;;;;16.67;14.90;;;;;;;5.95;100.00;97641.38;5047155;28;20219;-64
2023/02/17 10:28:47;;;;;;;16.70;15.10;;;;;;;5.96;100.00;97639.53;5033991;28;20221;-64
2023/02/17 10:31:22;;;;;;;15.57;13.97;;;;;;;6.02;100.00;97637.22;5023426;28;20210;-64
2023/02/17 10:33:55;;;;;;;15.87;14.20;;;;;;;6.06;100.00;97641.22;5028781;28;20299;-64
2023/02/17 10:36:30;;;;;;;14.50;13.00;;;;;;;6.07;100.00;97640.22;5048147;28;20601;-65
2023/02/17 10:39:01;;;;;;;14.33;13.03;;;;;;;6.12;100.00;97644.22;5050443;28;20232;-65
2023/02/17 10:41:34;;;;;;;12.57;11.27;;;;;;;6.18;100.00;97633.97;5048397;28;20625;-66
2023/02/17 10:44:03;;;;;;;13.53;12.23;;;;;;;6.40;100.00;97636.38;5000643;28;20226;-66
2023/02/17 10:46:31;;;;;;;11.83;8.27;;;;;;;6.74;100.00;97626.03;5018772;28;20241;-64
2023/02/17 10:48:59;;;;;;;9.53;8.60;;;;;;;6.92;100.00;97620.78;5046788;28;20424;-63
2023/02/17 10:51:29;;;;;;;6.20;5.60;;;;;;;7.29;100.00;97618.16;4999642;28;20455;-65
2023/02/17 10:54:00;;;;;;;4.77;4.37;;;;;;;7.56;100.00;97617.19;5053782;28;20237;-67
2023/02/17 10:56:33;;;;;;;4.47;3.30;;;;;;;7.79;100.00;97614.06;5066834;28;20741;-64
2023/02/17 10:59:05;;;;;;;3.60;3.30;;;;;;;7.88;100.00;97625.50;5045348;28;20331;-66
2023/02/17 11:01:33;;;;;;;3.13;2.93;;;;;;;8.00;100.00;97616.31;5031605;28;20232;-65
2023/02/17 11:04:02;;;;;;;3.10;2.80;;;;;;;8.00;100.00;97603.13;5066800;28;20406;-67
2023/02/17 11:06:32;;;;;;;3.80;3.50;;;;;;;8.03;100.00;97608.09;5018117;28;20210;-64
2023/02/17 11:09:02;;;;;;;5.03;3.00;;;;;;;8.10;100.00;97592.44;5074586;28;20193;-66
2023/02/17 11:11:31;;;;;;;3.73;3.20;;;;;;;8.13;100.00;97599.22;5067233;28;20744;-65
2023/02/17 11:14:09;;;;;;;2.87;2.73;;;;;;;8.09;100.00;97594.25;5046683;28;21037;-66
2023/02/17 11:16:39;;;;;;;3.53;3.23;;;;;;;8.11;100.00;97580.91;5031718;28;20574;-63
2023/02/17 11:19:20;;;;;;;3.85;3.47;;;;;;;8.21;100.00;97597.44;5064346;28;20444;-65
2023/02/17 11:21:50;;;;;;;3.23;2.90;;;;;;;8.41;100.00;97589.28;5022601;28;20561;-66
2023/02/17 11:24:18;;;;;;;3.97;3.43;;;;;;;8.56;100.00;97578.13;5079112;28;20235;-64
2023/02/17 11:26:56;;;;;;;2.77;2.67;;;;;;;8.61;100.00;97573.19;5061900;28;20194;-66
2023/02/17 11:29:23;;;;;;;4.33;2.50;;;;;;;8.69;100.00;97570.53;5057032;28;20214;-64
2023/02/17 11:31:56;;;;;;;3.10;2.80;;;;;;;8.79;100.00;97563.31;5028973;28;20216;-65